Wirksworth, United Kingdom
Current Conditions -  °F | °C
As of 12:20 AM on Saturday 29 Nov 2014 (Local Time) from EGNX Reporting Station
Drizzle Drizzle  
Wind Chill: 43°   Ceiling: 400
Heat Index: 48°   Visibility: 3mi
Dew Point: 48°   Wind: 13mph
Humidity: 100%   Direction: 90°E
Pressure: 29.8"   Gusts: NA
Location:  53.08°N, 1.57°W
Report Text: EGNX 290020Z 09011KT 5000 -DZ BKN004 09/09 Q1009
Loading
Personal Weather Stations






























Interactive Weather Map New forecast layout! Learn more

10-Day Weather Forecast

Advertisements
Track Severe Weather on mobile